Time;durP1;ratioP1;P1;durP2;ratioP2;P2;SDS_P1;SDS_P2;PMS_P1;PMS_P2;Temp;Humidity;BMP_temperature;BMP_pressure;BME280_temperature;BME280_humidity;BME280_pressure;Samples;Min_cycle;Max_cycle;Signal;HPM_P1;HPM_P2
2023/01/05 00:01:37;;;;;;;1.63;1.53;;;10.30;99.90;;;;;;5073132;28;20298;-85
2023/01/05 00:04:03;;;;;;;1.50;1.40;;;10.30;99.90;;;;;;5076477;28;20188;-86
2023/01/05 00:06:29;;;;;;;1.83;1.60;;;10.20;99.90;;;;;;5073110;28;20196;-87
2023/01/05 00:08:55;;;;;;;1.43;1.43;;;10.10;99.90;;;;;;5074925;28;20204;-86
2023/01/05 00:22:29;;;;;;;1.33;1.30;;;10.10;99.90;;;;;;5076146;28;20826;-86
2023/01/05 00:25:26;;;;;;;1.40;1.40;;;10.10;99.90;;;;;;5055348;28;20276;-84
2023/01/05 00:27:53;;;;;;;2.17;1.40;;;10.10;99.90;;;;;;5068063;28;20287;-87
2023/01/05 00:30:21;;;;;;;1.47;1.40;;;10.10;99.90;;;;;;5061883;28;20192;-87
2023/01/05 00:32:46;;;;;;;1.30;1.30;;;10.10;99.90;;;;;;5071894;28;20197;-86
2023/01/05 00:35:13;;;;;;;1.27;1.27;;;10.20;99.90;;;;;;5073926;28;20216;-87
2023/01/05 00:37:40;;;;;;;1.40;1.30;;;10.10;99.90;;;;;;5075875;28;20188;-86
2023/01/05 00:40:08;;;;;;;1.50;1.40;;;10.10;99.90;;;;;;5078509;28;20271;-87
2023/01/05 00:42:34;;;;;;;1.10;1.10;;;10.20;99.90;;;;;;5077423;28;20215;-86
2023/01/05 00:44:59;;;;;;;1.70;1.40;;;10.20;99.90;;;;;;5077533;28;20245;-86
2023/01/05 00:47:25;;;;;;;2.17;1.53;;;10.10;99.90;;;;;;5068191;28;20180;-87
2023/01/05 00:49:51;;;;;;;1.43;1.40;;;10.20;99.90;;;;;;5072831;28;20193;-87
2023/01/05 00:52:16;;;;;;;1.20;1.20;;;10.20;99.90;;;;;;5071261;28;20204;-87
2023/01/05 00:54:42;;;;;;;1.23;1.23;;;10.30;99.90;;;;;;5072112;28;20187;-86
2023/01/05 00:57:12;;;;;;;1.10;1.10;;;10.30;99.90;;;;;;5073373;28;20196;-87
2023/01/05 00:59:37;;;;;;;1.67;1.20;;;10.20;99.90;;;;;;5058048;28;20217;-87
2023/01/05 01:02:03;;;;;;;1.63;1.53;;;10.20;99.90;;;;;;5068264;28;20220;-86
2023/01/05 01:04:30;;;;;;;1.30;1.30;;;10.20;99.90;;;;;;5072986;28;20278;-86
2023/01/05 01:06:56;;;;;;;1.20;1.20;;;10.20;99.90;;;;;;5076466;28;20189;-86
2023/01/05 01:09:22;;;;;;;1.57;1.40;;;10.20;99.90;;;;;;5071852;28;20180;-85
2023/01/05 01:11:47;;;;;;;1.20;1.20;;;10.20;99.90;;;;;;5070683;28;20584;-87
2023/01/05 01:14:13;;;;;;;1.20;1.20;;;10.20;99.90;;;;;;5069399;28;20286;-85
2023/01/05 01:16:41;;;;;;;1.50;1.40;;;10.10;99.90;;;;;;5058901;28;20249;-87
2023/01/05 01:19:07;;;;;;;1.37;1.27;;;10.10;99.90;;;;;;5083437;28;20187;-85
2023/01/05 01:21:33;;;;;;;1.20;1.20;;;10.20;99.90;;;;;;5086343;28;20219;-85
2023/01/05 01:23:59;;;;;;;1.20;1.20;;;10.20;99.90;;;;;;5055888;28;20195;-85
2023/01/05 01:26:25;;;;;;;1.37;1.37;;;10.20;99.90;;;;;;5075450;28;20238;-85
2023/01/05 01:28:50;;;;;;;1.10;1.10;;;10.30;99.90;;;;;;5057042;28;20278;-85
2023/01/05 01:31:16;;;;;;;1.20;1.10;;;10.30;99.90;;;;;;5079706;28;20222;-84
2023/01/05 01:33:42;;;;;;;1.43;1.30;;;10.40;99.90;;;;;;5075429;28;20172;-85
2023/01/05 01:36:08;;;;;;;1.20;1.20;;;10.40;99.90;;;;;;5062994;28;20191;-86
2023/01/05 01:38:34;;;;;;;1.30;1.30;;;10.40;99.90;;;;;;5076872;28;20196;-85
2023/01/05 01:41:00;;;;;;;1.10;1.10;;;10.40;99.90;;;;;;5074146;28;20219;-86
2023/01/05 01:43:44;;;;;;;1.73;1.20;;;10.40;99.90;;;;;;5072584;28;20188;-85
2023/01/05 01:46:11;;;;;;;1.10;1.10;;;10.50;99.90;;;;;;5073704;28;20183;-86
2023/01/05 01:48:40;;;;;;;1.23;1.13;;;10.50;99.90;;;;;;5079364;28;20180;-85
2023/01/05 01:51:14;;;;;;;1.33;1.13;;;10.50;99.90;;;;;;5073688;28;20234;-87
2023/01/05 01:53:43;;;;;;;1.20;1.20;;;10.50;99.90;;;;;;5063934;28;20257;-86
2023/01/05 01:56:13;;;;;;;1.40;1.30;;;10.70;99.90;;;;;;5075518;28;20204;-85
2023/01/05 01:58:39;;;;;;;1.30;1.30;;;10.70;99.90;;;;;;5083767;28;20200;-86
2023/01/05 02:01:05;;;;;;;1.60;1.10;;;10.70;99.90;;;;;;5076746;28;20206;-85
2023/01/05 02:03:31;;;;;;;1.10;1.10;;;10.80;99.90;;;;;;5058717;28;20231;-85
2023/01/05 02:05:58;;;;;;;1.00;1.00;;;10.70;99.90;;;;;;5078118;28;20653;-86
2023/01/05 02:08:30;;;;;;;1.10;1.10;;;10.70;99.90;;;;;;5078655;28;20188;-86
2023/01/05 02:11:13;;;;;;;1.20;1.20;;;10.70;99.90;;;;;;5055111;28;20196;-86
2023/01/05 02:14:10;;;;;;;1.23;1.17;;;10.70;99.90;;;;;;5077167;28;20175;-86
2023/01/05 02:16:45;;;;;;;1.10;1.10;;;10.60;99.90;;;;;;5079368;28;20251;-86
2023/01/05 02:19:35;;;;;;;1.40;1.20;;;10.50;99.90;;;;;;5072969;28;20189;-85
2023/01/05 02:22:13;;;;;;;1.20;1.20;;;10.60;99.90;;;;;;5077007;28;20215;-86
2023/01/05 02:25:01;;;;;;;1.13;1.13;;;10.70;99.90;;;;;;5071046;28;20203;-86
2023/01/05 02:27:36;;;;;;;1.10;1.10;;;10.70;99.90;;;;;;5076460;28;20199;-87
2023/01/05 02:30:41;;;;;;;1.07;1.07;;;10.70;99.90;;;;;;5080165;28;20187;-86
2023/01/05 02:33:37;;;;;;;1.13;1.13;;;10.60;99.90;;;;;;5069021;28;20199;-86
2023/01/05 02:36:12;;;;;;;1.00;1.00;;;10.50;99.90;;;;;;5068899;28;20180;-86
2023/01/05 02:38:42;;;;;;;1.30;1.20;;;10.50;99.90;;;;;;5072550;28;20202;-86
2023/01/05 02:41:20;;;;;;;1.30;1.30;;;10.40;99.90;;;;;;5049960;28;20231;-86
2023/01/05 02:43:45;;;;;;;1.37;1.30;;;10.30;99.90;;;;;;5054183;28;20179;-86
2023/01/05 02:46:11;;;;;;;1.30;1.20;;;10.30;99.90;;;;;;5072522;28;20234;-86
2023/01/05 02:48:39;;;;;;;1.30;1.30;;;10.20;99.90;;;;;;5050121;28;20242;-85
2023/01/05 02:51:31;;;;;;;1.30;1.30;;;10.30;99.90;;;;;;5056324;28;20620;-87
2023/01/05 02:54:20;;;;;;;1.30;1.30;;;10.30;99.90;;;;;;5086477;28;20175;-86
2023/01/05 02:56:59;;;;;;;1.23;1.23;;;10.40;99.90;;;;;;5084856;28;20175;-87
2023/01/05 02:59:39;;;;;;;1.20;1.20;;;10.40;99.90;;;;;;5089238;28;20263;-86
2023/01/05 03:02:24;;;;;;;1.10;1.10;;;10.40;99.90;;;;;;5077264;28;20216;-86
2023/01/05 03:05:13;;;;;;;1.17;1.17;;;10.40;99.90;;;;;;5068317;28;20176;-84
2023/01/05 03:07:41;;;;;;;1.30;1.20;;;10.50;99.90;;;;;;5055370;28;20593;-85
2023/01/05 03:15:43;;;;;;;1.20;1.20;;;10.20;99.90;;;;;;5083375;28;20194;-85
2023/01/05 03:18:13;;;;;;;1.20;1.20;;;10.30;99.90;;;;;;5072447;28;20188;-85
2023/01/05 03:20:42;;;;;;;1.30;1.30;;;10.30;99.90;;;;;;5073699;28;20280;-86
2023/01/05 03:37:36;;;;;;;1.50;1.40;;;10.20;99.90;;;;;;5068696;28;20211;-87
2023/01/05 03:40:06;;;;;;;1.27;1.27;;;10.20;99.90;;;;;;5077875;28;20229;-85
2023/01/05 03:42:32;;;;;;;1.37;1.33;;;10.30;99.90;;;;;;5080677;28;20216;-86
2023/01/05 03:44:58;;;;;;;1.17;1.17;;;10.30;99.90;;;;;;5060881;28;20251;-85
2023/01/05 03:47:24;;;;;;;1.30;1.30;;;10.20;99.90;;;;;;5075990;28;20184;-85
2023/01/05 03:49:50;;;;;;;1.20;1.07;;;10.20;99.90;;;;;;5060505;28;20190;-86
2023/01/05 03:52:16;;;;;;;1.27;1.20;;;10.20;99.90;;;;;;5063931;28;20261;-85
2023/01/05 03:54:42;;;;;;;1.30;1.30;;;10.30;99.90;;;;;;5078167;28;20200;-85
2023/01/05 03:57:07;;;;;;;1.37;1.30;;;10.30;99.90;;;;;;5081609;28;20192;-85
2023/01/05 03:59:33;;;;;;;1.20;1.20;;;10.20;99.90;;;;;;5079698;28;20666;-85
2023/01/05 04:01:59;;;;;;;1.27;1.20;;;10.10;99.90;;;;;;5082382;28;20253;-85
2023/01/05 04:04:24;;;;;;;1.10;1.10;;;10.10;99.90;;;;;;5063851;28;20199;-86
2023/01/05 04:06:50;;;;;;;1.30;1.30;;;10.10;99.90;;;;;;5080587;28;20196;-86
2023/01/05 04:09:16;;;;;;;1.20;1.20;;;10.10;99.90;;;;;;5080637;28;20199;-85
2023/01/05 04:11:41;;;;;;;1.40;1.40;;;10.10;99.90;;;;;;5066184;28;20215;-85
2023/01/05 04:14:07;;;;;;;1.60;1.50;;;10.10;99.90;;;;;;5075100;28;20275;-86
2023/01/05 04:16:33;;;;;;;1.40;1.40;;;10.10;99.90;;;;;;5082680;28;20204;-85
2023/01/05 04:18:59;;;;;;;1.30;1.30;;;10.20;99.90;;;;;;5081247;28;20226;-85
2023/01/05 04:21:24;;;;;;;1.33;1.33;;;10.10;99.90;;;;;;5065715;28;20284;-85
2023/01/05 04:23:50;;;;;;;1.30;1.30;;;10.20;99.90;;;;;;5083476;28;20184;-86
2023/01/05 04:26:16;;;;;;;1.10;1.10;;;10.20;99.90;;;;;;5078298;28;20184;-86
2023/01/05 04:28:41;;;;;;;1.30;1.30;;;10.20;99.90;;;;;;5075635;28;20192;-85
2023/01/05 04:31:07;;;;;;;1.13;1.13;;;10.20;99.90;;;;;;5057937;28;20226;-86
2023/01/05 04:33:33;;;;;;;1.23;1.20;;;10.20;99.90;;;;;;5063919;28;20169;-86
2023/01/05 04:35:58;;;;;;;1.30;1.30;;;10.30;99.90;;;;;;5063545;28;20188;-86
2023/01/05 04:38:24;;;;;;;1.33;1.30;;;10.30;99.90;;;;;;5082002;28;20187;-85
2023/01/05 04:40:50;;;;;;;1.20;1.20;;;10.30;99.90;;;;;;5075927;28;20280;-87
2023/01/05 04:43:17;;;;;;;1.20;1.20;;;10.40;99.90;;;;;;5080321;28;20291;-87
2023/01/05 04:45:47;;;;;;;1.40;1.40;;;10.30;99.90;;;;;;5070161;28;20184;-85
2023/01/05 04:48:12;;;;;;;2.33;1.40;;;10.40;99.90;;;;;;5077048;28;20200;-87
2023/01/05 04:50:38;;;;;;;1.40;1.30;;;10.40;99.90;;;;;;5063539;28;20227;-86
2023/01/05 04:53:04;;;;;;;1.20;1.20;;;10.40;99.90;;;;;;5074263;28;20180;-86
2023/01/05 04:55:29;;;;;;;1.20;1.20;;;10.40;99.90;;;;;;5076831;28;20181;-87
2023/01/05 04:57:55;;;;;;;1.17;1.17;;;10.40;99.90;;;;;;5082783;28;20247;-87
2023/01/05 05:00:21;;;;;;;1.20;1.20;;;10.50;99.90;;;;;;5079541;28;20200;-88
2023/01/05 05:02:47;;;;;;;1.20;1.20;;;10.50;99.90;;;;;;5055446;28;20222;-88
2023/01/05 05:05:12;;;;;;;1.83;1.30;;;10.50;99.90;;;;;;5084474;28;20200;-88
2023/01/05 05:07:38;;;;;;;1.30;1.30;;;10.40;99.90;;;;;;5079664;28;20220;-87
2023/01/05 05:10:05;;;;;;;1.50;1.50;;;10.50;99.90;;;;;;5070351;28;20192;-87
2023/01/05 05:12:30;;;;;;;1.40;1.30;;;10.60;99.90;;;;;;5086682;28;20212;-88
2023/01/05 05:14:56;;;;;;;1.63;1.37;;;10.50;99.90;;;;;;5076732;28;20191;-88
2023/01/05 05:17:22;;;;;;;1.83;1.43;;;10.60;99.90;;;;;;5053614;28;20176;-86
2023/01/05 05:19:47;;;;;;;2.10;1.50;;;10.50;99.90;;;;;;5066601;28;20247;-87
2023/01/05 05:22:13;;;;;;;2.07;1.30;;;10.60;99.90;;;;;;5079383;28;20211;-88
2023/01/05 05:24:39;;;;;;;2.13;1.50;;;10.70;99.90;;;;;;5071560;28;20459;-87
2023/01/05 05:27:04;;;;;;;3.00;1.30;;;10.70;99.90;;;;;;5052960;28;20188;-87
2023/01/05 05:29:30;;;;;;;1.20;1.20;;;10.70;99.90;;;;;;5074783;28;20172;-87
2023/01/05 05:31:56;;;;;;;1.50;1.40;;;10.80;99.90;;;;;;5075499;28;20280;-87
2023/01/05 05:34:22;;;;;;;1.60;1.50;;;10.70;99.90;;;;;;5070843;28;20188;-86
2023/01/05 05:36:47;;;;;;;1.60;1.50;;;10.70;99.90;;;;;;5076919;28;20214;-85
2023/01/05 05:39:15;;;;;;;1.60;1.50;;;10.70;99.90;;;;;;5074070;28;20203;-87
2023/01/05 05:41:41;;;;;;;1.90;1.60;;;10.80;99.90;;;;;;5065325;28;20601;-87
2023/01/05 05:44:07;;;;;;;2.97;1.70;;;10.80;99.90;;;;;;5074641;28;20187;-86
2023/01/05 05:46:33;;;;;;;3.33;1.67;;;10.80;99.90;;;;;;5078052;28;20206;-87
2023/01/05 05:48:59;;;;;;;3.23;1.50;;;10.70;99.90;;;;;;5081600;28;20188;-86
2023/01/05 05:51:26;;;;;;;1.97;1.60;;;10.80;99.90;;;;;;5049393;28;20244;-88
2023/01/05 05:53:52;;;;;;;1.80;1.70;;;10.70;99.90;;;;;;5067135;28;20200;-86
2023/01/05 05:56:18;;;;;;;1.50;1.40;;;10.80;99.90;;;;;;5054042;28;20287;-86
2023/01/05 05:58:44;;;;;;;1.97;1.50;;;10.70;99.90;;;;;;5058348;28;20207;-85
2023/01/05 06:01:10;;;;;;;2.10;1.60;;;10.80;99.90;;;;;;5063393;28;20210;-88
2023/01/05 06:03:35;;;;;;;1.37;1.30;;;10.70;99.90;;;;;;5070315;28;20184;-85
2023/01/05 06:06:01;;;;;;;1.37;1.37;;;10.70;99.90;;;;;;5070895;28;20650;-87
2023/01/05 06:08:28;;;;;;;1.30;1.30;;;10.70;99.90;;;;;;5055245;28;20187;-87
2023/01/05 06:10:55;;;;;;;1.30;1.20;;;10.70;99.90;;;;;;5060245;28;20207;-86
2023/01/05 06:13:22;;;;;;;1.30;1.20;;;10.70;99.90;;;;;;5055234;28;20263;-86
2023/01/05 06:15:48;;;;;;;1.60;1.37;;;10.70;99.90;;;;;;5060313;28;20198;-87
2023/01/05 06:18:13;;;;;;;1.60;1.50;;;10.70;99.90;;;;;;5057975;28;20196;-85
2023/01/05 06:20:40;;;;;;;1.50;1.40;;;10.60;99.90;;;;;;5066639;28;20239;-86
2023/01/05 06:23:06;;;;;;;1.40;1.40;;;10.70;99.90;;;;;;5073829;28;20279;-86
2023/01/05 06:25:32;;;;;;;1.60;1.50;;;10.60;99.90;;;;;;5075802;28;20183;-86
2023/01/05 06:27:58;;;;;;;1.50;1.40;;;10.50;99.90;;;;;;5059883;28;20221;-86
2023/01/05 06:30:24;;;;;;;1.40;1.40;;;10.40;99.90;;;;;;5075966;28;20889;-87
2023/01/05 06:32:49;;;;;;;1.40;1.40;;;10.40;99.90;;;;;;5079299;28;20195;-86
2023/01/05 06:35:15;;;;;;;1.60;1.50;;;10.40;99.90;;;;;;5081872;28;20219;-86
2023/01/05 06:37:41;;;;;;;1.80;1.60;;;10.40;99.90;;;;;;5068396;28;20308;-86
2023/01/05 06:40:08;;;;;;;1.43;1.43;;;10.40;99.90;;;;;;5057484;28;20196;-87
2023/01/05 06:42:34;;;;;;;1.40;1.40;;;10.30;99.90;;;;;;5077047;28;20690;-85
2023/01/05 06:45:00;;;;;;;1.47;1.40;;;10.40;99.90;;;;;;5072526;28;20199;-85
2023/01/05 06:47:25;;;;;;;1.57;1.50;;;10.50;99.90;;;;;;5081609;28;20187;-85
2023/01/05 06:49:51;;;;;;;1.60;1.50;;;10.50;99.90;;;;;;5078316;28;20734;-87
2023/01/05 06:52:17;;;;;;;1.80;1.70;;;10.50;99.90;;;;;;5065021;28;20234;-88
2023/01/05 06:54:43;;;;;;;1.90;1.50;;;10.60;99.90;;;;;;5071012;28;20252;-86
2023/01/05 06:57:10;;;;;;;1.47;1.40;;;10.50;99.90;;;;;;5057968;28;20200;-85
2023/01/05 06:59:36;;;;;;;1.60;1.50;;;10.50;99.90;;;;;;5077946;28;20184;-86
2023/01/05 07:02:01;;;;;;;1.57;1.40;;;10.40;99.90;;;;;;5074872;28;20306;-86
2023/01/05 07:04:27;;;;;;;2.00;1.90;;;10.30;99.90;;;;;;5073589;28;20216;-86
2023/01/05 07:06:55;;;;;;;1.97;1.87;;;10.40;99.90;;;;;;5081672;28;20234;-86
2023/01/05 07:09:21;;;;;;;1.60;1.50;;;10.30;99.90;;;;;;5082146;28;20203;-87
2023/01/05 07:11:47;;;;;;;1.60;1.50;;;10.30;99.90;;;;;;5076743;28;20204;-86
2023/01/05 07:14:13;;;;;;;3.03;1.83;;;10.20;99.90;;;;;;5072656;28;20250;-85
2023/01/05 07:16:39;;;;;;;1.67;1.50;;;10.30;99.90;;;;;;5078094;28;20188;-87
2023/01/05 07:19:04;;;;;;;1.70;1.60;;;10.30;99.90;;;;;;5079719;28;20208;-86
2023/01/05 07:21:30;;;;;;;1.90;1.80;;;10.40;99.90;;;;;;5064780;28;20284;-86
2023/01/05 07:23:56;;;;;;;2.00;1.77;;;10.50;99.90;;;;;;5076353;28;20263;-88
2023/01/05 07:26:22;;;;;;;2.03;1.83;;;10.50;99.90;;;;;;5080902;28;20199;-86
2023/01/05 07:28:47;;;;;;;3.33;2.27;;;10.50;99.90;;;;;;5071969;28;20207;-86
2023/01/05 07:31:13;;;;;;;3.03;1.93;;;10.60;99.90;;;;;;5083518;28;20545;-87
2023/01/05 07:33:46;;;;;;;4.27;2.10;;;10.80;99.90;;;;;;5077633;28;20192;-86
2023/01/05 07:36:12;;;;;;;3.17;2.00;;;10.80;99.90;;;;;;5082108;28;20244;-86
2023/01/05 07:38:38;;;;;;;3.60;2.50;;;10.80;99.90;;;;;;5090519;28;20191;-87
2023/01/05 07:41:07;;;;;;;6.73;2.50;;;10.90;99.90;;;;;;5072300;28;20225;-87
2023/01/05 07:43:36;;;;;;;5.60;2.60;;;10.90;99.90;;;;;;5069734;28;20211;-87
2023/01/05 07:46:03;;;;;;;6.90;2.50;;;10.90;99.90;;;;;;5084700;28;20194;-87
2023/01/05 07:48:29;;;;;;;4.13;2.40;;;10.90;99.90;;;;;;5079569;28;20188;-87
2023/01/05 07:51:04;;;;;;;4.13;2.17;;;10.80;99.90;;;;;;5084096;28;20735;-85
2023/01/05 07:53:36;;;;;;;3.40;2.07;;;10.80;99.90;;;;;;5070827;28;20196;-86
2023/01/05 07:56:03;;;;;;;3.97;2.20;;;10.80;99.90;;;;;;5071462;28;20197;-88
2023/01/05 07:58:28;;;;;;;3.10;1.97;;;10.70;99.90;;;;;;5055600;28;20203;-85
2023/01/05 08:01:01;;;;;;;3.40;2.03;;;10.70;99.90;;;;;;5085826;28;20237;-87
2023/01/05 08:03:27;;;;;;;3.80;2.10;;;10.70;99.90;;;;;;5064718;28;20210;-87
2023/01/05 08:05:55;;;;;;;5.43;2.30;;;10.70;99.90;;;;;;5089564;28;20176;-90
2023/01/05 08:08:23;;;;;;;5.93;2.07;;;10.70;99.90;;;;;;5064753;28;20171;-89
2023/01/05 08:10:49;;;;;;;4.50;2.13;;;10.70;99.90;;;;;;5069518;28;20202;-89
2023/01/05 08:16:02;;;;;;;5.83;2.20;;;10.70;99.90;;;;;;5072896;28;20215;-87
2023/01/05 08:18:31;;;;;;;6.73;3.10;;;10.80;99.90;;;;;;5067038;28;20180;-87
2023/01/05 08:21:05;;;;;;;5.80;2.53;;;10.80;99.90;;;;;;5082625;28;20220;-87
2023/01/05 08:23:32;;;;;;;4.93;2.60;;;10.80;99.90;;;;;;5080397;28;20191;-87
2023/01/05 08:26:16;;;;;;;6.90;2.73;;;10.80;99.90;;;;;;5078116;28;20188;-87
2023/01/05 08:28:45;;;;;;;5.20;2.70;;;10.90;99.90;;;;;;5073863;28;20185;-88
2023/01/05 08:31:24;;;;;;;6.33;2.80;;;10.90;99.90;;;;;;5078088;28;20227;-87
2023/01/05 08:33:54;;;;;;;7.43;3.80;;;10.90;99.90;;;;;;5054791;28;20211;-88
2023/01/05 08:36:22;;;;;;;7.53;2.80;;;10.80;99.90;;;;;;5056521;28;20188;-87
2023/01/05 08:38:53;;;;;;;9.90;3.87;;;10.90;99.90;;;;;;5059220;28;20183;-88
2023/01/05 08:41:26;;;;;;;9.17;3.03;;;10.90;99.90;;;;;;5076177;28;20223;-88
2023/01/05 08:43:58;;;;;;;7.23;3.03;;;11.00;99.90;;;;;;5064807;28;20196;-88
2023/01/05 08:46:28;;;;;;;8.20;3.33;;;11.00;99.90;;;;;;5072287;28;20180;-88
2023/01/05 08:48:57;;;;;;;10.53;3.33;;;11.00;99.90;;;;;;5079508;28;20176;-88
2023/01/05 08:51:23;;;;;;;8.27;3.10;;;11.00;99.90;;;;;;5072806;28;20535;-88
2023/01/05 08:53:49;;;;;;;9.03;3.30;;;11.10;99.90;;;;;;5074604;28;20267;-87
2023/01/05 08:56:18;;;;;;;10.37;3.50;;;11.10;99.90;;;;;;5073833;28;20546;-87
2023/01/05 08:58:46;;;;;;;9.70;3.07;;;11.00;99.90;;;;;;5075954;28;20203;-89
2023/01/05 09:01:15;;;;;;;7.37;3.63;;;11.10;99.90;;;;;;5069228;28;20238;-88
2023/01/05 09:03:41;;;;;;;6.63;3.60;;;11.00;99.90;;;;;;5067927;28;20317;-88
2023/01/05 09:06:10;;;;;;;10.47;3.33;;;11.10;99.90;;;;;;5062962;28;20868;-88
2023/01/05 09:08:43;;;;;;;9.70;3.23;;;11.10;99.90;;;;;;5064353;28;20200;-88
2023/01/05 09:11:21;;;;;;;7.50;3.33;;;11.00;99.90;;;;;;5077104;28;20203;-88
2023/01/05 09:13:50;;;;;;;10.33;3.47;;;11.10;99.90;;;;;;5069853;28;20195;-87
2023/01/05 09:16:20;;;;;;;7.30;3.27;;;11.10;99.90;;;;;;5073795;28;20203;-88
2023/01/05 09:18:46;;;;;;;6.60;3.27;;;11.20;99.90;;;;;;5074186;28;20267;-89
2023/01/05 09:21:12;;;;;;;10.93;3.60;;;11.10;99.90;;;;;;5058249;28;20704;-88
2023/01/05 09:23:38;;;;;;;9.97;3.40;;;11.20;99.90;;;;;;5075927;28;20222;-87
2023/01/05 09:26:05;;;;;;;8.10;3.30;;;11.10;99.90;;;;;;5055169;28;20242;-89
2023/01/05 09:28:31;;;;;;;6.90;3.53;;;11.10;99.90;;;;;;5050396;28;20287;-89
2023/01/05 09:30:57;;;;;;;16.17;4.33;;;11.10;99.90;;;;;;5075753;28;20203;-88
2023/01/05 09:33:23;;;;;;;11.80;4.10;;;11.20;99.90;;;;;;5074229;28;20183;-88
2023/01/05 09:35:55;;;;;;;12.30;3.30;;;11.10;99.90;;;;;;5069030;28;20184;-89
2023/01/05 09:38:24;;;;;;;12.27;3.93;;;11.20;99.90;;;;;;5058200;28;20217;-89
2023/01/05 09:40:54;;;;;;;10.90;3.30;;;11.20;99.90;;;;;;5078894;28;20251;-86
2023/01/05 09:43:35;;;;;;;10.23;3.47;;;11.30;99.90;;;;;;5077989;28;20294;-88
2023/01/05 09:46:06;;;;;;;9.37;3.40;;;11.30;99.90;;;;;;5071193;28;20191;-88
2023/01/05 09:48:39;;;;;;;8.30;3.53;;;11.30;99.90;;;;;;5080235;28;20189;-87
2023/01/05 09:51:06;;;;;;;10.43;3.63;;;11.40;99.30;;;;;;5077653;28;20209;-88
2023/01/05 09:53:32;;;;;;;8.90;3.60;;;11.40;99.90;;;;;;5075874;28;20204;-87
2023/01/05 09:55:58;;;;;;;6.90;3.43;;;11.40;99.90;;;;;;5073556;28;20185;-87
2023/01/05 09:58:30;;;;;;;8.17;3.87;;;11.40;99.90;;;;;;5049366;28;20200;-88
2023/01/05 10:01:16;;;;;;;9.27;3.67;;;11.50;99.40;;;;;;5077169;28;20213;-89
2023/01/05 10:04:15;;;;;;;8.03;3.67;;;11.60;98.80;;;;;;5071463;28;20190;-88
2023/01/05 10:06:49;;;;;;;8.70;4.00;;;11.60;98.10;;;;;;5054172;28;20257;-88
2023/01/05 10:09:20;;;;;;;10.70;4.63;;;11.70;98.90;;;;;;5057266;28;20190;-87
2023/01/05 10:15:10;;;;;;;9.03;3.73;;;11.70;98.10;;;;;;5074466;28;20702;-88
2023/01/05 10:17:40;;;;;;;9.80;3.87;;;11.70;98.50;;;;;;5073334;28;20205;-89
2023/01/05 10:20:49;;;;;;;10.13;3.87;;;11.60;98.10;;;;;;5057814;28;20201;-87
2023/01/05 10:23:58;;;;;;;9.73;3.80;;;11.70;98.20;;;;;;5052032;28;20256;-87
2023/01/05 10:26:27;;;;;;;8.07;4.23;;;11.60;99.00;;;;;;5074407;28;20185;-87
2023/01/05 10:29:04;;;;;;;6.80;3.27;;;11.70;99.50;;;;;;5073184;28;20190;-87
2023/01/05 10:31:57;;;;;;;8.80;3.37;;;11.80;98.00;;;;;;5081314;28;20229;-86
2023/01/05 10:34:38;;;;;;;12.73;3.90;;;11.70;98.00;;;;;;5073495;28;20242;-87
2023/01/05 10:37:29;;;;;;;11.90;4.07;;;11.80;95.90;;;;;;5051813;28;20216;-88
2023/01/05 10:40:27;;;;;;;9.17;3.50;;;11.90;97.10;;;;;;5052304;28;20220;-88
2023/01/05 10:43:01;;;;;;;13.83;4.00;;;11.90;95.60;;;;;;5070952;28;20213;-87
2023/01/05 10:45:29;;;;;;;9.90;3.90;;;11.90;96.30;;;;;;5075308;28;20180;-90
2023/01/05 10:47:58;;;;;;;10.67;4.07;;;11.90;95.90;;;;;;5084705;28;20255;-88
2023/01/05 10:50:34;;;;;;;8.87;4.27;;;12.00;95.20;;;;;;5079404;28;20189;-88
2023/01/05 10:53:19;;;;;;;12.10;3.80;;;12.00;95.40;;;;;;5080498;28;20196;-89
2023/01/05 10:56:04;;;;;;;10.00;3.60;;;11.90;95.20;;;;;;5081491;28;20188;-90
2023/01/05 10:58:37;;;;;;;10.43;4.23;;;12.00;94.70;;;;;;5076206;28;20215;-88
2023/01/05 11:01:22;;;;;;;9.10;4.17;;;12.00;94.20;;;;;;5078078;28;20206;-89
2023/01/05 11:03:52;;;;;;;10.20;3.73;;;12.00;94.30;;;;;;5081894;28;20187;-90
2023/01/05 11:06:28;;;;;;;8.30;4.00;;;11.90;94.80;;;;;;5088863;28;20210;-90
2023/01/05 11:09:06;;;;;;;12.07;4.13;;;11.90;94.70;;;;;;5085294;28;20206;-88
2023/01/05 11:11:31;;;;;;;9.17;3.97;;;11.90;95.60;;;;;;5096283;28;20180;-90
2023/01/05 11:14:05;;;;;;;9.53;4.07;;;11.90;94.60;;;;;;5061655;28;20186;-88
2023/01/05 11:16:37;;;;;;;9.27;3.73;;;12.00;94.70;;;;;;5068439;28;20264;-89
2023/01/05 11:19:09;;;;;;;10.47;4.50;;;11.90;95.30;;;;;;5071185;28;20190;-88
2023/01/05 11:21:38;;;;;;;9.77;4.03;;;12.00;96.70;;;;;;5071901;28;20222;-90
2023/01/05 11:24:24;;;;;;;9.30;3.53;;;11.80;97.70;;;;;;5057049;28;20223;-88
2023/01/05 11:26:55;;;;;;;8.30;3.90;;;11.80;96.80;;;;;;5058945;28;20186;-89
2023/01/05 11:29:22;;;;;;;11.83;4.53;;;11.90;96.20;;;;;;5071755;28;20186;-87
2023/01/05 11:32:09;;;;;;;9.83;3.73;;;11.80;97.30;;;;;;5057650;28;20232;-89
2023/01/05 11:34:47;;;;;;;11.53;3.80;;;11.80;98.60;;;;;;5073944;28;20233;-88
2023/01/05 11:37:25;;;;;;;9.87;3.90;;;11.80;97.60;;;;;;5071911;28;20186;-88
2023/01/05 11:40:03;;;;;;;11.17;3.83;;;11.90;97.00;;;;;;5074200;28;20206;-88
2023/01/05 11:42:34;;;;;;;8.27;3.80;;;11.90;97.20;;;;;;5082817;28;20210;-87
2023/01/05 11:45:09;;;;;;;10.80;3.73;;;12.00;96.60;;;;;;5082463;28;20232;-87
2023/01/05 11:47:56;;;;;;;8.63;4.13;;;12.10;97.50;;;;;;5080976;28;20191;-88
2023/01/05 11:50:37;;;;;;;10.03;4.33;;;12.30;95.70;;;;;;5074407;28;20268;-87
2023/01/05 11:53:03;;;;;;;10.93;4.50;;;12.30;94.70;;;;;;5071224;28;20189;-87
2023/01/05 11:55:36;;;;;;;10.57;3.93;;;12.40;94.00;;;;;;5073701;28;20198;-89
2023/01/05 11:58:20;;;;;;;10.13;4.17;;;12.70;94.90;;;;;;5080566;28;20245;-89
2023/01/05 12:01:16;;;;;;;11.27;4.37;;;12.60;93.10;;;;;;5090286;28;20207;-88
2023/01/05 12:04:02;;;;;;;9.30;4.27;;;12.50;94.00;;;;;;5073095;28;20251;-88
2023/01/05 12:06:59;;;;;;;8.40;3.63;;;12.30;94.20;;;;;;5075340;28;20190;-88
2023/01/05 12:09:38;;;;;;;9.27;4.10;;;12.30;95.50;;;;;;5058993;28;20182;-88
2023/01/05 12:12:16;;;;;;;10.70;4.60;;;12.20;95.80;;;;;;5082733;28;20206;-88
2023/01/05 12:14:44;;;;;;;14.03;3.67;;;12.20;96.10;;;;;;5072905;28;20198;-88
2023/01/05 12:17:18;;;;;;;10.47;3.97;;;12.20;96.90;;;;;;5061661;28;20191;-88
2023/01/05 12:20:11;;;;;;;11.30;3.83;;;12.20;96.90;;;;;;5079981;28;20195;-88
2023/01/05 12:23:09;;;;;;;11.20;4.30;;;12.20;96.00;;;;;;5072085;28;20260;-88
2023/01/05 12:25:44;;;;;;;11.83;4.97;;;12.30;94.90;;;;;;5038305;28;20715;-88
2023/01/05 12:28:19;;;;;;;9.67;4.23;;;12.20;96.70;;;;;;5054299;28;20554;-88
2023/01/05 12:31:04;;;;;;;11.03;4.40;;;12.40;94.00;;;;;;5086037;28;20220;-87
2023/01/05 12:33:33;;;;;;;11.00;4.13;;;12.30;95.80;;;;;;5085379;28;20197;-87
2023/01/05 12:36:09;;;;;;;10.23;4.57;;;12.30;95.40;;;;;;5078272;28;20184;-88
2023/01/05 12:38:37;;;;;;;10.60;4.27;;;12.30;95.60;;;;;;5081508;28;20195;-88
2023/01/05 12:41:17;;;;;;;8.70;3.60;;;12.30;93.60;;;;;;5078339;28;20221;-88
2023/01/05 12:44:05;;;;;;;12.53;4.20;;;12.20;92.90;;;;;;5068433;28;20217;-88
2023/01/05 12:46:42;;;;;;;11.90;4.07;;;12.30;93.50;;;;;;5082765;28;20217;-87
2023/01/05 12:49:16;;;;;;;11.97;4.53;;;12.10;93.30;;;;;;5075800;28;20192;-88
2023/01/05 12:51:49;;;;;;;11.27;4.83;;;12.10;94.50;;;;;;5075412;28;20258;-88
2023/01/05 12:54:54;;;;;;;8.53;5.10;;;12.20;93.90;;;;;;5077931;28;20186;-88
2023/01/05 12:57:30;;;;;;;11.00;4.93;;;12.30;93.40;;;;;;5070372;28;20202;-88
2023/01/05 13:00:12;;;;;;;13.47;4.87;;;12.30;92.30;;;;;;5057500;28;20187;-88
2023/01/05 13:02:43;;;;;;;9.77;4.23;;;12.20;93.00;;;;;;5053964;28;20206;-88
2023/01/05 13:05:23;;;;;;;9.03;4.83;;;12.20;90.90;;;;;;5071015;28;20183;-88
2023/01/05 13:07:59;;;;;;;11.40;5.00;;;12.20;93.00;;;;;;5073108;28;20192;-88
2023/01/05 13:10:28;;;;;;;13.97;6.23;;;12.00;93.70;;;;;;5073670;28;20190;-87
2023/01/05 13:13:03;;;;;;;10.07;6.03;;;12.10;94.00;;;;;;5079893;28;20241;-89
2023/01/05 13:15:40;;;;;;;11.10;4.90;;;12.00;92.80;;;;;;5083203;28;20221;-87
2023/01/05 13:18:09;;;;;;;9.73;5.27;;;12.10;93.00;;;;;;5075385;28;20186;-87
2023/01/05 13:20:41;;;;;;;9.07;4.83;;;12.10;93.50;;;;;;5071576;28;20199;-88
2023/01/05 13:23:20;;;;;;;12.60;4.50;;;12.30;92.40;;;;;;5069876;28;20226;-88
2023/01/05 13:26:13;;;;;;;11.07;4.47;;;12.10;93.00;;;;;;5084248;28;20186;-88
2023/01/05 13:28:39;;;;;;;14.90;4.20;;;12.10;93.10;;;;;;5062163;28;20221;-88
2023/01/05 13:31:29;;;;;;;12.40;4.40;;;12.00;94.40;;;;;;5088747;28;20209;-90
2023/01/05 13:34:12;;;;;;;8.97;4.50;;;12.00;94.50;;;;;;5080037;28;20184;-90
2023/01/05 13:37:21;;;;;;;11.93;4.47;;;12.10;94.10;;;;;;5147653;22;20237;-92
2023/01/05 13:40:27;;;;;;;14.70;4.87;;;12.00;95.10;;;;;;5058885;28;20304;-89
2023/01/05 13:43:16;;;;;;;11.10;4.47;;;12.10;94.80;;;;;;5041206;28;20335;-89
2023/01/05 13:46:25;;;;;;;13.10;5.20;;;12.10;94.50;;;;;;5057409;28;20274;-88